Terminal Aerodrome Forecast
Issued by NWS

Home | Current Version | Previous Version | Graphics & Text | Print | Product List | Glossary On
Versions: 1 2 3 4 5 6 7 8 9 10 11 12 13 14 15 16 17 18 19
000
FTUS43 KBIS 211720
TAFMOT
TAF
KMOT 211720Z 2118/2218 26021G30KT P6SM BKN070
     FM212300 27022G35KT P6SM BKN035 WS020/29030KT
     FM220300 27012KT P6SM SCT110 WS020/30035KT
     FM220800 24010KT P6SM FEW250
     FM221600 22017G25KT P6SM BKN150=

USA.gov is the U.S. government's official web portal to all federal, state and local government web resources and services.